sensor_id;sensor_type;location;lat;lon;timestamp;P1;durP1;ratioP1;P2;durP2;ratioP2
3811;SDS011;1921;49.368;11.068;2023-02-28T00:01:27;37.42;;;35.53;;
3811;SDS011;1921;49.368;11.068;2023-02-28T00:03:53;39.70;;;37.50;;
3811;SDS011;1921;49.368;11.068;2023-02-28T00:06:19;38.17;;;36.20;;
3811;SDS011;1921;49.368;11.068;2023-02-28T00:08:45;38.88;;;36.78;;
3811;SDS011;1921;49.368;11.068;2023-02-28T00:11:12;39.93;;;37.40;;
3811;SDS011;1921;49.368;11.068;2023-02-28T00:13:41;39.75;;;37.40;;
3811;SDS011;1921;49.368;11.068;2023-02-28T00:16:12;39.57;;;37.27;;
3811;SDS011;1921;49.368;11.068;2023-02-28T00:18:44;38.67;;;36.67;;
3811;SDS011;1921;49.368;11.068;2023-02-28T00:21:12;38.90;;;36.77;;
3811;SDS011;1921;49.368;11.068;2023-02-28T00:23:38;38.60;;;36.50;;
3811;SDS011;1921;49.368;11.068;2023-02-28T00:26:03;39.47;;;37.27;;
3811;SDS011;1921;49.368;11.068;2023-02-28T00:28:29;38.70;;;36.70;;
3811;SDS011;1921;49.368;11.068;2023-02-28T00:30:55;39.37;;;36.87;;
3811;SDS011;1921;49.368;11.068;2023-02-28T00:33:22;39.10;;;37.00;;
3811;SDS011;1921;49.368;11.068;2023-02-28T00:35:48;38.67;;;36.67;;
3811;SDS011;1921;49.368;11.068;2023-02-28T00:38:14;38.43;;;36.43;;
3811;SDS011;1921;49.368;11.068;2023-02-28T00:40:41;39.13;;;37.03;;
3811;SDS011;1921;49.368;11.068;2023-02-28T00:43:07;38.00;;;36.00;;
3811;SDS011;1921;49.368;11.068;2023-02-28T00:45:32;39.30;;;36.90;;
3811;SDS011;1921;49.368;11.068;2023-02-28T00:47:58;38.83;;;36.73;;
3811;SDS011;1921;49.368;11.068;2023-02-28T00:50:24;38.33;;;36.40;;
3811;SDS011;1921;49.368;11.068;2023-02-28T00:52:50;38.50;;;36.07;;
3811;SDS011;1921;49.368;11.068;2023-02-28T00:55:15;38.10;;;36.13;;
3811;SDS011;1921;49.368;11.068;2023-02-28T00:57:41;39.03;;;36.77;;
3811;SDS011;1921;49.368;11.068;2023-02-28T01:00:07;39.67;;;37.43;;
3811;SDS011;1921;49.368;11.068;2023-02-28T01:02:34;40.53;;;38.10;;
3811;SDS011;1921;49.368;11.068;2023-02-28T01:04:59;39.43;;;37.23;;
3811;SDS011;1921;49.368;11.068;2023-02-28T01:07:25;39.73;;;37.40;;
3811;SDS011;1921;49.368;11.068;2023-02-28T01:09:51;39.33;;;37.13;;
3811;SDS011;1921;49.368;11.068;2023-02-28T01:12:17;40.23;;;37.63;;
3811;SDS011;1921;49.368;11.068;2023-02-28T01:14:42;39.83;;;37.63;;
3811;SDS011;1921;49.368;11.068;2023-02-28T01:17:08;41.70;;;38.80;;
3811;SDS011;1921;49.368;11.068;2023-02-28T01:19:34;39.30;;;37.20;;
3811;SDS011;1921;49.368;11.068;2023-02-28T01:22:04;40.13;;;37.87;;
3811;SDS011;1921;49.368;11.068;2023-02-28T01:24:30;39.90;;;37.50;;
3811;SDS011;1921;49.368;11.068;2023-02-28T01:26:56;41.30;;;38.70;;
3811;SDS011;1921;49.368;11.068;2023-02-28T01:29:22;39.17;;;36.97;;
3811;SDS011;1921;49.368;11.068;2023-02-28T01:31:48;39.47;;;37.27;;
3811;SDS011;1921;49.368;11.068;2023-02-28T01:34:14;40.60;;;37.90;;
3811;SDS011;1921;49.368;11.068;2023-02-28T01:36:39;39.70;;;37.40;;
3811;SDS011;1921;49.368;11.068;2023-02-28T01:39:05;39.70;;;37.47;;
3811;SDS011;1921;49.368;11.068;2023-02-28T01:41:32;42.60;;;39.17;;
3811;SDS011;1921;49.368;11.068;2023-02-28T01:46:52;39.00;;;36.83;;
3811;SDS011;1921;49.368;11.068;2023-02-28T01:49:18;41.20;;;38.70;;
3811;SDS011;1921;49.368;11.068;2023-02-28T01:51:45;38.90;;;36.80;;
3811;SDS011;1921;49.368;11.068;2023-02-28T01:54:21;39.57;;;37.37;;
3811;SDS011;1921;49.368;11.068;2023-02-28T01:57:16;39.77;;;37.37;;
3811;SDS011;1921;49.368;11.068;2023-02-28T01:59:54;39.40;;;37.20;;
3811;SDS011;1921;49.368;11.068;2023-02-28T02:02:25;40.30;;;37.80;;
3811;SDS011;1921;49.368;11.068;2023-02-28T02:07:28;38.77;;;36.70;;
3811;SDS011;1921;49.368;11.068;2023-02-28T02:10:03;40.43;;;37.90;;
3811;SDS011;1921;49.368;11.068;2023-02-28T02:16:08;40.03;;;37.73;;
3811;SDS011;1921;49.368;11.068;2023-02-28T02:19:15;39.90;;;37.47;;
3811;SDS011;1921;49.368;11.068;2023-02-28T02:31:14;40.03;;;37.47;;
3811;SDS011;1921;49.368;11.068;2023-02-28T02:40:35;39.27;;;36.97;;
3811;SDS011;1921;49.368;11.068;2023-02-28T02:45:48;40.90;;;38.40;;
3811;SDS011;1921;49.368;11.068;2023-02-28T02:48:21;40.40;;;37.80;;
3811;SDS011;1921;49.368;11.068;2023-02-28T02:50:54;40.00;;;37.80;;
3811;SDS011;1921;49.368;11.068;2023-02-28T02:53:27;40.53;;;38.13;;
3811;SDS011;1921;49.368;11.068;2023-02-28T02:55:59;40.93;;;38.43;;
3811;SDS011;1921;49.368;11.068;2023-02-28T02:58:31;39.43;;;37.03;;
3811;SDS011;1921;49.368;11.068;2023-02-28T03:01:06;39.60;;;37.40;;
3811;SDS011;1921;49.368;11.068;2023-02-28T03:03:38;40.33;;;37.93;;
3811;SDS011;1921;49.368;11.068;2023-02-28T03:06:04;42.07;;;38.90;;
3811;SDS011;1921;49.368;11.068;2023-02-28T03:08:34;40.17;;;37.77;;
3811;SDS011;1921;49.368;11.068;2023-02-28T03:11:03;40.17;;;37.43;;
3811;SDS011;1921;49.368;11.068;2023-02-28T03:22:14;38.90;;;36.77;;
3811;SDS011;1921;49.368;11.068;2023-02-28T03:25:17;38.83;;;36.73;;
3811;SDS011;1921;49.368;11.068;2023-02-28T03:30:55;40.25;;;37.85;;
3811;SDS011;1921;49.368;11.068;2023-02-28T03:33:44;40.57;;;38.07;;
3811;SDS011;1921;49.368;11.068;2023-02-28T03:36:35;39.50;;;37.20;;
3811;SDS011;1921;49.368;11.068;2023-02-28T03:39:12;40.53;;;37.83;;
3811;SDS011;1921;49.368;11.068;2023-02-28T03:41:51;39.30;;;37.00;;
3811;SDS011;1921;49.368;11.068;2023-02-28T03:47:35;40.03;;;37.73;;
3811;SDS011;1921;49.368;11.068;2023-02-28T03:53:06;39.05;;;36.95;;
3811;SDS011;1921;49.368;11.068;2023-02-28T03:55:42;39.77;;;37.47;;
3811;SDS011;1921;49.368;11.068;2023-02-28T03:58:24;40.00;;;37.60;;
3811;SDS011;1921;49.368;11.068;2023-02-28T04:01:09;40.83;;;38.20;;
3811;SDS011;1921;49.368;11.068;2023-02-28T04:03:43;38.80;;;36.60;;
3811;SDS011;1921;49.368;11.068;2023-02-28T04:06:13;40.77;;;38.27;;
3811;SDS011;1921;49.368;11.068;2023-02-28T04:08:42;38.13;;;36.13;;
3811;SDS011;1921;49.368;11.068;2023-02-28T04:11:19;40.13;;;37.60;;
3811;SDS011;1921;49.368;11.068;2023-02-28T04:13:59;40.90;;;38.28;;
3811;SDS011;1921;49.368;11.068;2023-02-28T04:16:27;41.63;;;38.35;;
3811;SDS011;1921;49.368;11.068;2023-02-28T04:18:53;42.20;;;39.60;;
3811;SDS011;1921;49.368;11.068;2023-02-28T04:21:19;40.90;;;38.50;;
3811;SDS011;1921;49.368;11.068;2023-02-28T04:23:47;40.63;;;38.00;;
3811;SDS011;1921;49.368;11.068;2023-02-28T04:26:13;39.07;;;36.87;;
3811;SDS011;1921;49.368;11.068;2023-02-28T04:28:38;40.70;;;38.13;;
3811;SDS011;1921;49.368;11.068;2023-02-28T04:31:04;39.03;;;36.80;;
3811;SDS011;1921;49.368;11.068;2023-02-28T04:33:31;38.63;;;36.60;;
3811;SDS011;1921;49.368;11.068;2023-02-28T04:36:07;41.73;;;38.97;;
3811;SDS011;1921;49.368;11.068;2023-02-28T04:38:37;39.07;;;36.87;;
3811;SDS011;1921;49.368;11.068;2023-02-28T04:41:04;41.55;;;38.85;;
3811;SDS011;1921;49.368;11.068;2023-02-28T04:43:31;39.90;;;37.60;;
3811;SDS011;1921;49.368;11.068;2023-02-28T04:45:57;41.00;;;38.50;;
3811;SDS011;1921;49.368;11.068;2023-02-28T04:48:30;38.30;;;36.40;;
3811;SDS011;1921;49.368;11.068;2023-02-28T04:51:00;40.13;;;37.60;;
3811;SDS011;1921;49.368;11.068;2023-02-28T04:53:27;40.42;;;37.97;;
3811;SDS011;1921;49.368;11.068;2023-02-28T04:55:54;40.57;;;38.00;;
3811;SDS011;1921;49.368;11.068;2023-02-28T04:58:21;41.03;;;38.40;;
3811;SDS011;1921;49.368;11.068;2023-02-28T05:00:48;41.95;;;38.65;;
3811;SDS011;1921;49.368;11.068;2023-02-28T05:03:15;41.70;;;38.70;;
3811;SDS011;1921;49.368;11.068;2023-02-28T05:05:41;39.53;;;37.47;;
3811;SDS011;1921;49.368;11.068;2023-02-28T05:08:07;38.63;;;36.53;;
3811;SDS011;1921;49.368;11.068;2023-02-28T05:10:32;39.53;;;37.30;;
3811;SDS011;1921;49.368;11.068;2023-02-28T05:12:58;41.13;;;38.25;;
3811;SDS011;1921;49.368;11.068;2023-02-28T05:15:24;36.97;;;35.17;;
3811;SDS011;1921;49.368;11.068;2023-02-28T05:17:50;38.50;;;36.47;;
3811;SDS011;1921;49.368;11.068;2023-02-28T05:20:16;39.57;;;37.40;;
3811;SDS011;1921;49.368;11.068;2023-02-28T05:22:42;39.93;;;37.50;;
3811;SDS011;1921;49.368;11.068;2023-02-28T05:25:12;41.63;;;38.47;;
3811;SDS011;1921;49.368;11.068;2023-02-28T05:27:42;39.00;;;37.00;;
3811;SDS011;1921;49.368;11.068;2023-02-28T05:30:08;38.10;;;36.10;;
3811;SDS011;1921;49.368;11.068;2023-02-28T05:32:36;40.88;;;38.20;;
3811;SDS011;1921;49.368;11.068;2023-02-28T05:35:03;37.60;;;35.70;;
3811;SDS011;1921;49.368;11.068;2023-02-28T05:37:30;39.20;;;37.20;;
3811;SDS011;1921;49.368;11.068;2023-02-28T05:39:55;38.47;;;36.50;;
3811;SDS011;1921;49.368;11.068;2023-02-28T05:42:21;38.37;;;36.27;;
3811;SDS011;1921;49.368;11.068;2023-02-28T05:44:47;39.53;;;37.43;;
3811;SDS011;1921;49.368;11.068;2023-02-28T05:47:13;40.63;;;38.10;;
3811;SDS011;1921;49.368;11.068;2023-02-28T05:49:40;38.03;;;36.13;;
3811;SDS011;1921;49.368;11.068;2023-02-28T05:52:07;39.72;;;37.35;;
3811;SDS011;1921;49.368;11.068;2023-02-28T05:54:33;41.13;;;38.63;;
3811;SDS011;1921;49.368;11.068;2023-02-28T05:56:58;42.43;;;39.47;;
3811;SDS011;1921;49.368;11.068;2023-02-28T05:59:24;39.27;;;36.97;;
3811;SDS011;1921;49.368;11.068;2023-02-28T06:01:50;41.17;;;38.67;;
3811;SDS011;1921;49.368;11.068;2023-02-28T06:04:18;41.60;;;38.60;;
3811;SDS011;1921;49.368;11.068;2023-02-28T06:06:46;40.30;;;38.05;;
3811;SDS011;1921;49.368;11.068;2023-02-28T06:09:13;38.20;;;36.30;;
3811;SDS011;1921;49.368;11.068;2023-02-28T06:11:39;39.30;;;36.80;;
3811;SDS011;1921;49.368;11.068;2023-02-28T06:14:06;38.45;;;36.47;;
3811;SDS011;1921;49.368;11.068;2023-02-28T06:16:37;41.60;;;39.10;;
3811;SDS011;1921;49.368;11.068;2023-02-28T06:19:03;40.10;;;37.80;;
3811;SDS011;1921;49.368;11.068;2023-02-28T06:21:29;41.30;;;38.20;;
3811;SDS011;1921;49.368;11.068;2023-02-28T06:23:56;38.93;;;36.73;;
3811;SDS011;1921;49.368;11.068;2023-02-28T06:26:23;42.07;;;39.17;;
3811;SDS011;1921;49.368;11.068;2023-02-28T06:28:50;42.17;;;39.43;;
3811;SDS011;1921;49.368;11.068;2023-02-28T06:31:17;40.40;;;37.83;;
3811;SDS011;1921;49.368;11.068;2023-02-28T06:33:43;43.90;;;39.80;;
3811;SDS011;1921;49.368;11.068;2023-02-28T06:36:11;42.47;;;39.53;;
3811;SDS011;1921;49.368;11.068;2023-02-28T06:38:38;41.90;;;39.10;;
3811;SDS011;1921;49.368;11.068;2023-02-28T06:41:04;38.47;;;36.47;;
3811;SDS011;1921;49.368;11.068;2023-02-28T06:43:34;42.93;;;39.63;;
3811;SDS011;1921;49.368;11.068;2023-02-28T06:46:04;42.40;;;39.77;;
3811;SDS011;1921;49.368;11.068;2023-02-28T06:48:33;43.20;;;39.77;;
3811;SDS011;1921;49.368;11.068;2023-02-28T06:51:06;41.53;;;38.93;;
3811;SDS011;1921;49.368;11.068;2023-02-28T06:53:35;40.40;;;37.90;;
3811;SDS011;1921;49.368;11.068;2023-02-28T06:56:04;42.00;;;39.30;;
3811;SDS011;1921;49.368;11.068;2023-02-28T06:58:36;43.17;;;40.07;;
3811;SDS011;1921;49.368;11.068;2023-02-28T07:01:02;39.07;;;36.97;;
3811;SDS011;1921;49.368;11.068;2023-02-28T07:03:29;42.27;;;39.47;;
3811;SDS011;1921;49.368;11.068;2023-02-28T07:05:55;44.60;;;41.30;;
3811;SDS011;1921;49.368;11.068;2023-02-28T07:08:22;43.50;;;40.67;;
3811;SDS011;1921;49.368;11.068;2023-02-28T07:10:53;43.80;;;40.40;;
3811;SDS011;1921;49.368;11.068;2023-02-28T07:13:20;42.77;;;39.87;;
3811;SDS011;1921;49.368;11.068;2023-02-28T07:16:20;44.03;;;40.93;;
3811;SDS011;1921;49.368;11.068;2023-02-28T07:18:38;44.07;;;41.03;;
3811;SDS011;1921;49.368;11.068;2023-02-28T07:21:05;44.07;;;40.27;;
3811;SDS011;1921;49.368;11.068;2023-02-28T07:23:33;43.10;;;40.10;;
3811;SDS011;1921;49.368;11.068;2023-02-28T07:26:00;43.23;;;40.17;;
3811;SDS011;1921;49.368;11.068;2023-02-28T07:28:25;43.13;;;40.33;;
3811;SDS011;1921;49.368;11.068;2023-02-28T07:30:51;45.77;;;42.30;;
3811;SDS011;1921;49.368;11.068;2023-02-28T07:33:17;45.77;;;42.33;;
3811;SDS011;1921;49.368;11.068;2023-02-28T07:35:43;42.87;;;39.97;;
3811;SDS011;1921;49.368;11.068;2023-02-28T07:38:09;46.40;;;42.90;;
3811;SDS011;1921;49.368;11.068;2023-02-28T07:40:35;45.53;;;41.80;;
3811;SDS011;1921;49.368;11.068;2023-02-28T07:43:01;43.93;;;41.03;;
3811;SDS011;1921;49.368;11.068;2023-02-28T07:45:28;44.20;;;41.20;;
3811;SDS011;1921;49.368;11.068;2023-02-28T07:47:56;44.30;;;41.30;;
3811;SDS011;1921;49.368;11.068;2023-02-28T07:50:22;43.80;;;40.77;;
3811;SDS011;1921;49.368;11.068;2023-02-28T07:52:48;46.37;;;42.93;;
3811;SDS011;1921;49.368;11.068;2023-02-28T07:55:13;44.40;;;41.20;;
3811;SDS011;1921;49.368;11.068;2023-02-28T07:57:41;43.13;;;40.20;;
3811;SDS011;1921;49.368;11.068;2023-02-28T08:00:08;43.90;;;40.70;;
3811;SDS011;1921;49.368;11.068;2023-02-28T08:02:35;45.10;;;41.80;;
3811;SDS011;1921;49.368;11.068;2023-02-28T08:05:01;46.83;;;42.93;;
3811;SDS011;1921;49.368;11.068;2023-02-28T08:07:28;46.63;;;42.87;;
3811;SDS011;1921;49.368;11.068;2023-02-28T08:09:53;47.70;;;43.53;;
3811;SDS011;1921;49.368;11.068;2023-02-28T08:12:19;45.33;;;41.97;;
3811;SDS011;1921;49.368;11.068;2023-02-28T08:14:45;47.27;;;43.57;;
3811;SDS011;1921;49.368;11.068;2023-02-28T08:17:11;46.70;;;43.10;;
3811;SDS011;1921;49.368;11.068;2023-02-28T08:19:37;46.03;;;42.73;;
3811;SDS011;1921;49.368;11.068;2023-02-28T08:22:04;47.03;;;43.27;;
3811;SDS011;1921;49.368;11.068;2023-02-28T08:24:29;49.50;;;45.60;;
3811;SDS011;1921;49.368;11.068;2023-02-28T08:26:55;46.33;;;42.83;;
3811;SDS011;1921;49.368;11.068;2023-02-28T08:29:21;44.40;;;41.30;;
3811;SDS011;1921;49.368;11.068;2023-02-28T08:31:47;45.20;;;42.00;;
3811;SDS011;1921;49.368;11.068;2023-02-28T08:34:14;48.70;;;44.73;;
3811;SDS011;1921;49.368;11.068;2023-02-28T08:36:41;48.90;;;44.60;;
3811;SDS011;1921;49.368;11.068;2023-02-28T08:39:10;49.10;;;44.73;;
3811;SDS011;1921;49.368;11.068;2023-02-28T08:41:37;49.50;;;45.40;;
3811;SDS011;1921;49.368;11.068;2023-02-28T08:44:03;46.57;;;42.77;;
3811;SDS011;1921;49.368;11.068;2023-02-28T08:46:28;46.27;;;42.37;;
3811;SDS011;1921;49.368;11.068;2023-02-28T08:48:55;47.03;;;43.00;;
3811;SDS011;1921;49.368;11.068;2023-02-28T08:51:26;47.50;;;43.57;;
3811;SDS011;1921;49.368;11.068;2023-02-28T08:53:54;48.60;;;44.30;;
3811;SDS011;1921;49.368;11.068;2023-02-28T08:56:24;48.33;;;44.10;;
3811;SDS011;1921;49.368;11.068;2023-02-28T08:58:52;47.87;;;44.00;;
3811;SDS011;1921;49.368;11.068;2023-02-28T09:01:22;45.90;;;42.30;;
3811;SDS011;1921;49.368;11.068;2023-02-28T09:03:52;49.07;;;44.90;;
3811;SDS011;1921;49.368;11.068;2023-02-28T09:06:19;48.90;;;44.57;;
3811;SDS011;1921;49.368;11.068;2023-02-28T09:08:47;49.30;;;45.07;;
3811;SDS011;1921;49.368;11.068;2023-02-28T09:11:13;48.67;;;43.60;;
3811;SDS011;1921;49.368;11.068;2023-02-28T09:13:39;47.97;;;44.07;;
3811;SDS011;1921;49.368;11.068;2023-02-28T09:16:06;49.90;;;45.40;;
3811;SDS011;1921;49.368;11.068;2023-02-28T09:18:35;47.03;;;43.23;;
3811;SDS011;1921;49.368;11.068;2023-02-28T09:21:12;50.33;;;46.07;;
3811;SDS011;1921;49.368;11.068;2023-02-28T09:23:41;48.27;;;44.13;;
3811;SDS011;1921;49.368;11.068;2023-02-28T09:26:12;46.13;;;42.53;;
3811;SDS011;1921;49.368;11.068;2023-02-28T09:28:47;47.33;;;43.53;;
3811;SDS011;1921;49.368;11.068;2023-02-28T09:31:14;50.90;;;46.33;;
3811;SDS011;1921;49.368;11.068;2023-02-28T09:33:52;46.27;;;42.50;;
3811;SDS011;1921;49.368;11.068;2023-02-28T09:36:19;49.70;;;45.37;;
3811;SDS011;1921;49.368;11.068;2023-02-28T09:38:46;47.40;;;43.60;;
3811;SDS011;1921;49.368;11.068;2023-02-28T09:41:57;49.20;;;45.00;;
3811;SDS011;1921;49.368;11.068;2023-02-28T09:44:15;47.33;;;43.53;;
3811;SDS011;1921;49.368;11.068;2023-02-28T09:47:07;50.17;;;45.67;;
3811;SDS011;1921;49.368;11.068;2023-02-28T09:49:44;48.57;;;44.27;;
3811;SDS011;1921;49.368;11.068;2023-02-28T09:52:17;48.50;;;44.40;;
3811;SDS011;1921;49.368;11.068;2023-02-28T09:54:49;48.40;;;44.40;;
3811;SDS011;1921;49.368;11.068;2023-02-28T09:57:26;50.90;;;46.23;;
3811;SDS011;1921;49.368;11.068;2023-02-28T10:08:45;48.97;;;44.90;;
3811;SDS011;1921;49.368;11.068;2023-02-28T10:11:39;49.17;;;45.07;;
3811;SDS011;1921;49.368;11.068;2023-02-28T10:14:16;47.57;;;43.60;;
3811;SDS011;1921;49.368;11.068;2023-02-28T10:17:11;50.60;;;46.20;;
3811;SDS011;1921;49.368;11.068;2023-02-28T10:22:52;47.13;;;43.30;;
3811;SDS011;1921;49.368;11.068;2023-02-28T10:25:45;49.70;;;45.40;;
3811;SDS011;1921;49.368;11.068;2023-02-28T10:28:26;49.00;;;44.70;;
3811;SDS011;1921;49.368;11.068;2023-02-28T10:30:55;48.03;;;43.93;;
3811;SDS011;1921;49.368;11.068;2023-02-28T10:33:41;49.13;;;44.60;;
3811;SDS011;1921;49.368;11.068;2023-02-28T10:36:08;46.07;;;42.37;;
3811;SDS011;1921;49.368;11.068;2023-02-28T10:38:42;47.63;;;43.83;;
3811;SDS011;1921;49.368;11.068;2023-02-28T10:41:13;46.10;;;42.40;;
3811;SDS011;1921;49.368;11.068;2023-02-28T10:43:52;46.30;;;42.63;;
3811;SDS011;1921;49.368;11.068;2023-02-28T10:46:36;48.43;;;44.37;;
3811;SDS011;1921;49.368;11.068;2023-02-28T10:49:12;48.50;;;44.20;;
3811;SDS011;1921;49.368;11.068;2023-02-28T10:55:29;49.73;;;45.37;;
3811;SDS011;1921;49.368;11.068;2023-02-28T10:57:55;47.20;;;43.20;;
3811;SDS011;1921;49.368;11.068;2023-02-28T11:00:21;48.10;;;44.00;;
3811;SDS011;1921;49.368;11.068;2023-02-28T11:02:50;49.57;;;45.00;;
3811;SDS011;1921;49.368;11.068;2023-02-28T11:07:56;47.30;;;43.40;;
3811;SDS011;1921;49.368;11.068;2023-02-28T11:10:35;48.07;;;43.97;;
3811;SDS011;1921;49.368;11.068;2023-02-28T11:13:02;47.80;;;43.83;;
3811;SDS011;1921;49.368;11.068;2023-02-28T11:15:29;49.97;;;45.47;;
3811;SDS011;1921;49.368;11.068;2023-02-28T11:18:00;51.60;;;46.90;;
3811;SDS011;1921;49.368;11.068;2023-02-28T11:21:28;48.33;;;44.13;;
3811;SDS011;1921;49.368;11.068;2023-02-28T11:27:00;46.77;;;42.87;;
3811;SDS011;1921;49.368;11.068;2023-02-28T11:29:28;47.53;;;43.43;;
3811;SDS011;1921;49.368;11.068;2023-02-28T11:32:03;48.90;;;44.40;;
3811;SDS011;1921;49.368;11.068;2023-02-28T11:34:37;48.53;;;44.23;;
3811;SDS011;1921;49.368;11.068;2023-02-28T11:37:05;50.27;;;45.50;;
3811;SDS011;1921;49.368;11.068;2023-02-28T11:39:36;48.93;;;44.70;;
3811;SDS011;1921;49.368;11.068;2023-02-28T11:47:47;50.87;;;46.27;;
3811;SDS011;1921;49.368;11.068;2023-02-28T12:01:22;53.57;;;48.47;;
3811;SDS011;1921;49.368;11.068;2023-02-28T12:06:51;51.47;;;46.67;;
3811;SDS011;1921;49.368;11.068;2023-02-28T12:12:54;50.37;;;45.50;;
3811;SDS011;1921;49.368;11.068;2023-02-28T12:15:55;50.17;;;45.47;;
3811;SDS011;1921;49.368;11.068;2023-02-28T12:24:43;49.50;;;45.07;;
3811;SDS011;1921;49.368;11.068;2023-02-28T12:27:33;50.77;;;46.17;;
3811;SDS011;1921;49.368;11.068;2023-02-28T12:30:08;51.73;;;46.50;;
3811;SDS011;1921;49.368;11.068;2023-02-28T12:32:48;47.60;;;43.60;;
3811;SDS011;1921;49.368;11.068;2023-02-28T12:35:27;50.03;;;45.53;;
3811;SDS011;1921;49.368;11.068;2023-02-28T12:40:42;50.67;;;45.97;;
3811;SDS011;1921;49.368;11.068;2023-02-28T12:43:20;51.87;;;46.87;;
3811;SDS011;1921;49.368;11.068;2023-02-28T12:45:56;50.00;;;45.33;;
3811;SDS011;1921;49.368;11.068;2023-02-28T12:48:31;49.90;;;44.83;;
3811;SDS011;1921;49.368;11.068;2023-02-28T12:51:21;48.10;;;43.90;;
3811;SDS011;1921;49.368;11.068;2023-02-28T12:56:35;48.77;;;44.30;;
3811;SDS011;1921;49.368;11.068;2023-02-28T13:02:09;50.60;;;45.90;;
3811;SDS011;1921;49.368;11.068;2023-02-28T13:05:19;48.60;;;44.13;;
3811;SDS011;1921;49.368;11.068;2023-02-28T13:13:58;50.30;;;45.50;;
3811;SDS011;1921;49.368;11.068;2023-02-28T13:16:31;51.07;;;46.17;;
3811;SDS011;1921;49.368;11.068;2023-02-28T13:19:33;51.33;;;46.43;;
3811;SDS011;1921;49.368;11.068;2023-02-28T13:22:19;51.83;;;46.87;;
3811;SDS011;1921;49.368;11.068;2023-02-28T13:25:53;51.20;;;46.20;;
3811;SDS011;1921;49.368;11.068;2023-02-28T13:28:03;50.43;;;45.77;;
3811;SDS011;1921;49.368;11.068;2023-02-28T13:33:25;50.80;;;45.90;;
3811;SDS011;1921;49.368;11.068;2023-02-28T13:38:41;49.20;;;44.60;;
3811;SDS011;1921;49.368;11.068;2023-02-28T13:44:08;52.50;;;47.40;;
3811;SDS011;1921;49.368;11.068;2023-02-28T14:06:47;50.37;;;45.60;;
3811;SDS011;1921;49.368;11.068;2023-02-28T14:15:39;52.20;;;47.30;;
3811;SDS011;1921;49.368;11.068;2023-02-28T14:18:21;48.43;;;44.13;;
3811;SDS011;1921;49.368;11.068;2023-02-28T14:32:33;50.53;;;45.73;;
3811;SDS011;1921;49.368;11.068;2023-02-28T14:38:20;51.37;;;46.53;;
3811;SDS011;1921;49.368;11.068;2023-02-28T14:40:55;53.27;;;48.13;;
3811;SDS011;1921;49.368;11.068;2023-02-28T14:43:26;50.73;;;46.10;;
3811;SDS011;1921;49.368;11.068;2023-02-28T14:45:57;47.63;;;43.40;;
3811;SDS011;1921;49.368;11.068;2023-02-28T14:48:26;50.43;;;45.83;;
3811;SDS011;1921;49.368;11.068;2023-02-28T14:50:57;49.37;;;44.90;;
3811;SDS011;1921;49.368;11.068;2023-02-28T14:53:29;50.67;;;45.93;;
3811;SDS011;1921;49.368;11.068;2023-02-28T14:56:01;49.27;;;44.87;;
3811;SDS011;1921;49.368;11.068;2023-02-28T14:58:28;50.37;;;45.73;;
3811;SDS011;1921;49.368;11.068;2023-02-28T15:00:59;50.63;;;45.90;;
3811;SDS011;1921;49.368;11.068;2023-02-28T15:03:37;51.07;;;46.23;;
3811;SDS011;1921;49.368;11.068;2023-02-28T15:06:14;52.13;;;47.13;;
3811;SDS011;1921;49.368;11.068;2023-02-28T15:08:43;52.80;;;47.80;;
3811;SDS011;1921;49.368;11.068;2023-02-28T15:11:16;49.30;;;44.80;;
3811;SDS011;1921;49.368;11.068;2023-02-28T15:13:51;51.10;;;45.80;;
3811;SDS011;1921;49.368;11.068;2023-02-28T15:16:21;48.70;;;44.37;;
3811;SDS011;1921;49.368;11.068;2023-02-28T15:19:06;48.83;;;44.47;;
3811;SDS011;1921;49.368;11.068;2023-02-28T15:21:50;46.00;;;42.20;;
3811;SDS011;1921;49.368;11.068;2023-02-28T15:27:05;49.33;;;44.93;;
3811;SDS011;1921;49.368;11.068;2023-02-28T15:29:48;50.37;;;45.87;;
3811;SDS011;1921;49.368;11.068;2023-02-28T15:32:28;49.40;;;45.10;;
3811;SDS011;1921;49.368;11.068;2023-02-28T15:34:56;50.60;;;46.00;;
3811;SDS011;1921;49.368;11.068;2023-02-28T15:37:40;49.87;;;45.50;;
3811;SDS011;1921;49.368;11.068;2023-02-28T15:45:56;51.50;;;46.70;;
3811;SDS011;1921;49.368;11.068;2023-02-28T15:48:36;50.87;;;46.17;;
3811;SDS011;1921;49.368;11.068;2023-02-28T15:51:22;48.43;;;43.83;;
3811;SDS011;1921;49.368;11.068;2023-02-28T15:54:02;47.53;;;43.67;;
3811;SDS011;1921;49.368;11.068;2023-02-28T15:56:37;50.23;;;45.83;;
3811;SDS011;1921;49.368;11.068;2023-02-28T15:59:16;48.50;;;44.30;;
3811;SDS011;1921;49.368;11.068;2023-02-28T16:01:45;49.40;;;45.00;;
3811;SDS011;1921;49.368;11.068;2023-02-28T16:04:18;46.80;;;42.97;;
3811;SDS011;1921;49.368;11.068;2023-02-28T16:06:45;48.37;;;44.10;;
3811;SDS011;1921;49.368;11.068;2023-02-28T16:09:23;49.73;;;45.23;;
3811;SDS011;1921;49.368;11.068;2023-02-28T16:11:50;46.30;;;42.60;;
3811;SDS011;1921;49.368;11.068;2023-02-28T16:14:26;47.80;;;43.67;;
3811;SDS011;1921;49.368;11.068;2023-02-28T16:16:57;47.50;;;43.57;;
3811;SDS011;1921;49.368;11.068;2023-02-28T16:19:30;49.10;;;44.97;;
3811;SDS011;1921;49.368;11.068;2023-02-28T16:21:56;48.40;;;44.23;;
3811;SDS011;1921;49.368;11.068;2023-02-28T16:24:22;46.83;;;42.87;;
3811;SDS011;1921;49.368;11.068;2023-02-28T16:26:48;47.70;;;43.80;;
3811;SDS011;1921;49.368;11.068;2023-02-28T16:29:28;45.33;;;41.90;;
3811;SDS011;1921;49.368;11.068;2023-02-28T16:31:58;44.73;;;41.33;;
3811;SDS011;1921;49.368;11.068;2023-02-28T16:34:25;49.10;;;44.67;;
3811;SDS011;1921;49.368;11.068;2023-02-28T16:36:51;47.10;;;43.10;;
3811;SDS011;1921;49.368;11.068;2023-02-28T16:39:17;48.20;;;44.03;;
3811;SDS011;1921;49.368;11.068;2023-02-28T16:41:45;48.20;;;44.13;;
3811;SDS011;1921;49.368;11.068;2023-02-28T16:44:19;47.67;;;43.80;;
3811;SDS011;1921;49.368;11.068;2023-02-28T16:46:49;47.07;;;43.30;;
3811;SDS011;1921;49.368;11.068;2023-02-28T16:49:15;48.00;;;43.37;;
3811;SDS011;1921;49.368;11.068;2023-02-28T16:51:40;48.27;;;44.17;;
3811;SDS011;1921;49.368;11.068;2023-02-28T16:54:06;48.07;;;44.00;;
3811;SDS011;1921;49.368;11.068;2023-02-28T16:56:32;45.77;;;42.10;;
3811;SDS011;1921;49.368;11.068;2023-02-28T16:58:59;46.80;;;42.90;;
3811;SDS011;1921;49.368;11.068;2023-02-28T17:01:27;48.10;;;43.67;;
3811;SDS011;1921;49.368;11.068;2023-02-28T17:03:54;46.90;;;43.20;;
3811;SDS011;1921;49.368;11.068;2023-02-28T17:06:21;44.63;;;41.30;;
3811;SDS011;1921;49.368;11.068;2023-02-28T17:08:52;44.57;;;41.23;;
3811;SDS011;1921;49.368;11.068;2023-02-28T17:11:19;44.40;;;41.20;;
3811;SDS011;1921;49.368;11.068;2023-02-28T17:13:46;46.27;;;42.47;;
3811;SDS011;1921;49.368;11.068;2023-02-28T17:16:15;47.00;;;43.20;;
3811;SDS011;1921;49.368;11.068;2023-02-28T17:18:56;45.27;;;41.77;;
3811;SDS011;1921;49.368;11.068;2023-02-28T17:21:28;44.30;;;41.10;;
3811;SDS011;1921;49.368;11.068;2023-02-28T17:23:55;46.17;;;42.50;;
3811;SDS011;1921;49.368;11.068;2023-02-28T17:26:21;45.43;;;42.07;;
3811;SDS011;1921;49.368;11.068;2023-02-28T17:28:51;45.80;;;42.20;;
3811;SDS011;1921;49.368;11.068;2023-02-28T17:31:20;44.57;;;41.43;;
3811;SDS011;1921;49.368;11.068;2023-02-28T17:33:47;48.20;;;43.80;;
3811;SDS011;1921;49.368;11.068;2023-02-28T17:36:14;46.17;;;42.77;;
3811;SDS011;1921;49.368;11.068;2023-02-28T17:38:42;44.13;;;40.97;;
3811;SDS011;1921;49.368;11.068;2023-02-28T17:41:11;46.40;;;42.90;;
3811;SDS011;1921;49.368;11.068;2023-02-28T17:43:37;45.20;;;41.70;;
3811;SDS011;1921;49.368;11.068;2023-02-28T17:46:03;45.40;;;41.83;;